Time;durP1;ratioP1;P1;durP2;ratioP2;P2;SDS_P1;SDS_P2;PMS_P1;PMS_P2;Temp;Humidity;BMP_temperature;BMP_pressure;BME280_temperature;BME280_humidity;BME280_pressure;Samples;Min_cycle;Max_cycle;Signal;HPM_P1;HPM_P2
2022/09/20 00:01:31;;;;;;;12.18;1.52;;;12.00;99.90;;;;;;4950279;28;20035;-75
2022/09/20 00:03:57;;;;;;;;;;;12.00;99.90;;;;;;4948001;28;20439;-75
2022/09/20 00:06:26;;;;;;;12.27;2.22;;;12.00;99.90;;;;;;4944795;28;19914;-74
2022/09/20 00:08:52;;;;;;;12.38;1.90;;;12.00;99.90;;;;;;4947135;28;20024;-74
2022/09/20 00:11:23;;;;;;;9.10;1.90;;;12.00;99.90;;;;;;4945944;28;20024;-74
2022/09/20 00:13:51;;;;;;;11.65;2.08;;;12.00;99.90;;;;;;4943794;29;20012;-75
2022/09/20 00:16:23;;;;;;;11.80;2.10;;;12.00;99.90;;;;;;4941305;29;20424;-78
2022/09/20 00:18:55;;;;;;;10.30;1.90;;;12.00;99.90;;;;;;4957927;28;20121;-75
2022/09/20 00:21:24;;;;;;;14.00;2.07;;;11.90;99.90;;;;;;4943519;28;20039;-74
2022/09/20 00:23:51;;;;;;;18.42;1.90;;;11.90;99.90;;;;;;4946709;28;20066;-73
2022/09/20 00:26:17;;;;;;;6.43;1.80;;;11.90;99.90;;;;;;4941821;28;20134;-75
2022/09/20 00:28:43;;;;;;;10.77;1.88;;;11.90;99.90;;;;;;4942475;29;20738;-71
2022/09/20 00:31:10;;;;;;;14.13;2.20;;;11.90;99.90;;;;;;4944401;29;20019;-74
2022/09/20 00:36:20;;;;;;;5.57;1.73;;;11.80;99.90;;;;;;4946095;29;20034;-74
2022/09/20 00:38:46;;;;;;;5.03;1.80;;;11.80;99.90;;;;;;4944288;29;20362;-74
2022/09/20 00:41:12;;;;;;;9.63;2.03;;;11.70;99.90;;;;;;4952183;28;20020;-74
2022/09/20 00:43:43;;;;;;;7.47;1.85;;;11.70;99.90;;;;;;4948719;29;20050;-75
2022/09/20 00:46:27;;;;;;;12.65;1.85;;;11.70;99.90;;;;;;4954554;28;20438;-74
2022/09/20 00:48:58;;;;;;;11.75;1.90;;;11.70;99.90;;;;;;4961643;28;20035;-73
2022/09/20 00:51:33;;;;;;;5.65;1.92;;;11.70;99.90;;;;;;4949583;29;20051;-75
2022/09/20 00:54:05;;;;;;;8.63;2.00;;;11.60;99.90;;;;;;4945311;29;20036;-74
2022/09/20 00:56:35;;;;;;;9.30;2.60;;;11.60;99.90;;;;;;4947503;29;20484;-76
2022/09/20 00:59:17;;;;;;;11.77;1.92;;;11.60;99.90;;;;;;4948565;28;20039;-74
2022/09/20 01:01:50;;;;;;;11.55;2.08;;;11.60;99.90;;;;;;4963415;28;20125;-76
2022/09/20 01:04:20;;;;;;;7.60;1.95;;;11.60;99.90;;;;;;4947172;29;20046;-74
2022/09/20 01:06:52;;;;;;;9.60;2.10;;;11.60;99.90;;;;;;4953131;29;20038;-75
2022/09/20 01:09:18;;;;;;;;;;;11.60;99.90;;;;;;4953556;28;20027;-74
2022/09/20 01:11:45;;;;;;;6.57;1.83;;;11.60;99.90;;;;;;4944980;28;20512;-75
2022/09/20 01:14:13;;;;;;;8.75;1.98;;;11.60;99.90;;;;;;4948240;29;20038;-75
2022/09/20 01:16:41;;;;;;;12.70;1.90;;;11.60;99.90;;;;;;4949301;29;20098;-77
2022/09/20 01:19:28;;;;;;;13.07;2.00;;;11.60;99.90;;;;;;4949998;29;20527;-75
2022/09/20 01:21:56;;;;;;;12.50;2.20;;;11.60;99.90;;;;;;4945679;28;20027;-77
2022/09/20 01:24:35;;;;;;;6.05;2.30;;;11.60;99.90;;;;;;4948110;28;20023;-74
2022/09/20 01:27:35;;;;;;;9.88;1.70;;;11.70;99.90;;;;;;4952682;28;20089;-76
2022/09/20 01:30:07;;;;;;;11.48;3.60;;;11.70;99.90;;;;;;4946672;29;20023;-76
2022/09/20 01:32:46;;;;;;;15.02;2.35;;;11.70;99.90;;;;;;4955881;28;20050;-75
2022/09/20 01:35:17;;;;;;;12.55;2.75;;;11.70;99.90;;;;;;4944547;29;20441;-74
2022/09/20 01:37:57;;;;;;;9.85;2.40;;;11.80;99.90;;;;;;4946564;29;20043;-74
2022/09/20 01:40:29;;;;;;;8.80;2.03;;;11.80;99.90;;;;;;4945480;29;20023;-75
2022/09/20 01:43:16;;;;;;;8.35;2.17;;;11.70;99.90;;;;;;4959889;28;20046;-73
2022/09/20 01:45:47;;;;;;;16.80;2.67;;;11.80;99.90;;;;;;4946947;29;20070;-75
2022/09/20 01:48:18;;;;;;;4.03;1.70;;;11.80;99.90;;;;;;4960896;28;20768;-74
2022/09/20 01:51:08;;;;;;;14.95;2.17;;;11.80;99.90;;;;;;4947938;28;20639;-73
2022/09/20 01:53:48;;;;;;;6.82;1.80;;;11.80;99.90;;;;;;4948848;29;20058;-73
2022/09/20 01:57:03;;;;;;;17.27;2.90;;;11.80;99.90;;;;;;4945723;29;20359;-75
2022/09/20 01:59:43;;;;;;;9.30;2.05;;;11.80;99.90;;;;;;4943019;29;20043;-75
2022/09/20 02:02:18;;;;;;;3.47;1.60;;;11.90;99.90;;;;;;4944797;29;20047;-75
2022/09/20 02:05:08;;;;;;;7.15;2.00;;;11.80;99.90;;;;;;4950137;29;20628;-76
2022/09/20 02:08:04;;;;;;;11.55;2.10;;;11.80;99.90;;;;;;4947318;29;20486;-74
2022/09/20 02:10:48;;;;;;;8.55;1.98;;;11.80;99.90;;;;;;4945600;29;20054;-75
2022/09/20 02:13:32;;;;;;;8.38;1.85;;;11.70;99.90;;;;;;4946554;29;20118;-74
2022/09/20 02:16:09;;;;;;;6.68;2.10;;;11.70;99.90;;;;;;4947894;29;20076;-75
2022/09/20 02:19:06;;;;;;;9.18;2.50;;;11.70;99.90;;;;;;4962506;28;20360;-76
2022/09/20 02:22:04;;;;;;;14.75;2.53;;;11.80;99.90;;;;;;4945329;29;20036;-76
2022/09/20 02:24:48;;;;;;;11.45;2.53;;;11.80;99.90;;;;;;4927064;29;20043;-74
2022/09/20 02:27:26;;;;;;;5.25;2.00;;;11.70;99.90;;;;;;4948927;29;20031;-76
2022/09/20 02:30:06;;;;;;;7.25;2.05;;;11.70;99.90;;;;;;4950734;29;20035;-75
2022/09/20 02:32:54;;;;;;;7.57;2.13;;;11.70;99.90;;;;;;4959626;28;20031;-76
2022/09/20 02:35:45;;;;;;;11.57;2.67;;;11.70;99.90;;;;;;4944063;29;20031;-74
2022/09/20 02:38:32;;;;;;;13.13;2.67;;;11.80;99.90;;;;;;4947156;29;20031;-76
2022/09/20 02:41:20;;;;;;;10.75;2.45;;;11.70;99.90;;;;;;4946300;29;20020;-76
2022/09/20 02:44:13;;;;;;;5.50;2.35;;;11.70;99.90;;;;;;4945923;29;20027;-74
2022/09/20 02:46:45;;;;;;;7.80;2.60;;;11.60;99.90;;;;;;4941338;29;20101;-75
2022/09/20 02:49:20;;;;;;;11.13;2.97;;;11.60;99.90;;;;;;4946802;29;20122;-73
2022/09/20 02:51:59;;;;;;;7.63;2.42;;;11.50;99.90;;;;;;4944190;29;20019;-74
2022/09/20 02:54:28;;;;;;;5.75;1.80;;;11.60;99.90;;;;;;4947768;28;20090;-74
2022/09/20 02:57:03;;;;;;;9.55;2.25;;;11.60;99.90;;;;;;4960944;28;20020;-74
2022/09/20 02:59:41;;;;;;;8.43;2.25;;;11.60;99.90;;;;;;4950379;29;20032;-76
2022/09/20 03:02:31;;;;;;;9.07;2.55;;;11.60;99.90;;;;;;4948752;28;20042;-73
2022/09/20 03:05:21;;;;;;;7.13;2.70;;;11.60;99.90;;;;;;4962131;28;20035;-74
2022/09/20 03:08:00;;;;;;;14.20;3.00;;;11.70;99.90;;;;;;4960654;28;20032;-75
2022/09/20 03:10:52;;;;;;;17.63;2.80;;;11.80;99.90;;;;;;4948336;29;20511;-75
2022/09/20 03:14:00;;;;;;;9.63;2.10;;;11.80;99.90;;;;;;4943108;29;20036;-76
2022/09/20 03:16:46;;;;;;;10.95;2.63;;;11.90;99.90;;;;;;4941461;28;20047;-75
2022/09/20 03:19:33;;;;;;;6.60;2.35;;;12.00;99.90;;;;;;4937658;28;20047;-75
2022/09/20 03:21:59;;;;;;;13.43;2.83;;;12.00;99.90;;;;;;4948718;29;20063;-76
2022/09/20 03:24:54;;;;;;;8.95;2.25;;;12.10;99.90;;;;;;4943790;28;20027;-75
2022/09/20 03:27:40;;;;;;;10.40;2.80;;;12.10;99.90;;;;;;4962235;28;20114;-76
2022/09/20 03:30:25;;;;;;;11.63;2.88;;;12.20;99.90;;;;;;4946624;29;20030;-75
2022/09/20 03:33:19;;;;;;;17.50;2.67;;;12.20;99.90;;;;;;4947560;29;20031;-74
2022/09/20 03:36:09;;;;;;;9.32;2.67;;;12.20;99.90;;;;;;4930085;29;20200;-75
2022/09/20 03:38:55;;;;;;;10.38;2.78;;;12.30;99.90;;;;;;4945368;28;20126;-75
2022/09/20 03:41:37;;;;;;;14.88;2.50;;;12.30;99.90;;;;;;4958260;28;20043;-74
2022/09/20 03:44:26;;;;;;;6.40;2.45;;;12.40;99.90;;;;;;4947437;29;20027;-74
2022/09/20 03:47:06;;;;;;;8.07;2.42;;;12.40;99.90;;;;;;4960629;28;20031;-78
2022/09/20 03:49:58;;;;;;;18.75;3.10;;;12.50;99.90;;;;;;4962591;28;20039;-77
2022/09/20 03:52:47;;;;;;;8.63;2.77;;;12.50;99.90;;;;;;4943359;29;20138;-75
2022/09/20 03:55:37;;;;;;;15.55;2.63;;;12.60;99.90;;;;;;4926919;29;20040;-76
2022/09/20 03:58:32;;;;;;;12.00;3.03;;;12.50;99.90;;;;;;4943723;28;20054;-77
2022/09/20 04:01:23;;;;;;;9.68;3.15;;;12.50;99.90;;;;;;4915038;28;20051;-76
2022/09/20 04:04:11;;;;;;;9.90;2.70;;;12.60;99.90;;;;;;4947278;28;20035;-77
2022/09/20 04:06:58;;;;;;;10.75;3.03;;;12.60;99.90;;;;;;4952576;28;20537;-77
2022/09/20 04:09:54;;;;;;;12.18;2.83;;;12.60;99.90;;;;;;4949090;29;20038;-77
2022/09/20 04:12:38;;;;;;;11.80;2.90;;;12.60;99.90;;;;;;4964296;28;20027;-77
2022/09/20 04:15:21;;;;;;;8.15;2.80;;;12.60;99.90;;;;;;4962638;28;20023;-76
2022/09/20 04:18:06;;;;;;;10.88;3.08;;;12.60;99.90;;;;;;4950475;29;20107;-76
2022/09/20 04:21:12;;;;;;;9.02;2.70;;;12.60;99.90;;;;;;4948928;29;20485;-77
2022/09/20 04:24:05;;;;;;;11.93;3.42;;;12.60;99.90;;;;;;4894926;29;20107;-75
2022/09/20 04:26:37;;;;;;;11.35;3.10;;;12.60;99.90;;;;;;4950767;29;20035;-74
2022/09/20 04:29:25;;;;;;;14.25;3.03;;;12.60;99.90;;;;;;4952541;29;20032;-76
2022/09/20 04:32:02;;;;;;;14.95;3.33;;;12.60;99.90;;;;;;4949056;29;20368;-77
2022/09/20 04:37:23;;;;;;;15.02;2.78;;;12.50;99.90;;;;;;4946230;29;20089;-75
2022/09/20 04:40:06;;;;;;;10.95;3.15;;;12.50;99.90;;;;;;4950570;29;20077;-75
2022/09/20 04:42:31;;;;;;;12.30;2.78;;;12.50;99.90;;;;;;4948364;29;20031;-76
2022/09/20 04:44:57;;;;;;;13.52;2.85;;;12.50;99.90;;;;;;4949204;28;20061;-76
2022/09/20 04:47:44;;;;;;;12.82;3.60;;;12.50;99.90;;;;;;4948377;28;20114;-77
2022/09/20 04:50:28;;;;;;;16.90;2.88;;;12.50;99.90;;;;;;4948685;29;20032;-76
2022/09/20 04:52:59;;;;;;;13.75;3.33;;;12.50;99.90;;;;;;4959452;28;20053;-74
2022/09/20 04:55:57;;;;;;;10.30;2.85;;;12.50;99.90;;;;;;4947813;29;20031;-75
2022/09/20 04:58:39;;;;;;;7.75;3.60;;;12.50;99.90;;;;;;4946760;28;20123;-75
2022/09/20 05:01:15;;;;;;;12.90;3.50;;;12.40;99.90;;;;;;4947560;29;20028;-76
2022/09/20 05:03:59;;;;;;;24.48;4.35;;;12.50;99.90;;;;;;4943266;29;20054;-75
2022/09/20 05:06:31;;;;;;;16.23;5.03;;;12.50;99.90;;;;;;4945662;29;20036;-76
2022/09/20 05:09:30;;;;;;;11.18;4.22;;;12.50;99.90;;;;;;4945575;28;20444;-76
2022/09/20 05:12:03;;;;;;;13.40;4.00;;;12.50;99.90;;;;;;4948219;29;20043;-74
2022/09/20 05:14:49;;;;;;;12.10;3.30;;;12.50;99.90;;;;;;4948629;29;20031;-76
2022/09/20 05:17:33;;;;;;;12.50;3.75;;;12.50;99.90;;;;;;4949958;28;20409;-76
2022/09/20 05:20:21;;;;;;;10.88;3.55;;;12.50;99.90;;;;;;4945678;29;20339;-76
2022/09/20 05:23:28;;;;;;;10.68;3.83;;;12.40;99.90;;;;;;4948417;29;20026;-76
2022/09/20 05:26:13;;;;;;;7.22;3.05;;;12.40;99.90;;;;;;4951660;29;20078;-74
2022/09/20 05:29:08;;;;;;;11.82;3.08;;;12.40;99.90;;;;;;4950747;29;20461;-74
2022/09/20 05:31:52;;;;;;;8.93;3.00;;;12.50;99.90;;;;;;4949018;29;20039;-74
2022/09/20 05:34:28;;;;;;;15.85;2.95;;;12.50;99.90;;;;;;4961440;28;20313;-73
2022/09/20 05:36:59;;;;;;;10.15;3.00;;;12.50;99.90;;;;;;4945585;29;20046;-74
2022/09/20 05:39:44;;;;;;;9.27;3.53;;;12.60;99.90;;;;;;4942053;29;20035;-74
2022/09/20 05:42:23;;;;;;;6.57;3.53;;;12.60;99.90;;;;;;4963015;28;20035;-72
2022/09/20 05:45:26;;;;;;;14.75;4.22;;;12.70;99.90;;;;;;4946131;29;20023;-75
2022/09/20 05:48:22;;;;;;;18.70;4.28;;;12.70;99.90;;;;;;4947380;29;20094;-72
2022/09/20 05:51:26;;;;;;;12.98;3.83;;;12.70;99.90;;;;;;4947163;29;20054;-73
2022/09/20 05:54:27;;;;;;;19.95;4.10;;;12.70;99.90;;;;;;4898337;29;20056;-72
2022/09/20 05:56:59;;;;;;;10.27;2.78;;;12.80;99.90;;;;;;4914755;29;20122;-75
2022/09/20 05:59:33;;;;;;;13.98;3.58;;;12.90;99.90;;;;;;4942341;29;20114;-72
2022/09/20 06:02:15;;;;;;;9.75;2.67;;;12.90;99.90;;;;;;4949937;29;20094;-72
2022/09/20 06:04:51;;;;;;;13.65;3.45;;;12.90;99.90;;;;;;4952443;29;20461;-72
2022/09/20 06:07:51;;;;;;;15.20;2.80;;;12.90;99.90;;;;;;4946621;29;20066;-73
2022/09/20 06:10:30;;;;;;;9.45;3.00;;;12.90;99.90;;;;;;4950114;29;20576;-69
2022/09/20 06:13:19;;;;;;;7.97;2.88;;;12.90;99.90;;;;;;4944687;29;20035;-74
2022/09/20 06:15:51;;;;;;;12.10;3.47;;;12.90;99.90;;;;;;4945871;29;20334;-72
2022/09/20 06:18:26;;;;;;;14.35;3.05;;;13.00;99.90;;;;;;4950582;28;20046;-74
2022/09/20 06:21:29;;;;;;;11.95;2.65;;;13.00;99.90;;;;;;4946968;29;20035;-74
2022/09/20 06:24:00;;;;;;;9.77;3.00;;;13.00;99.90;;;;;;4947858;29;20085;-73
2022/09/20 06:26:32;;;;;;;11.25;2.88;;;13.10;99.90;;;;;;4946475;29;20027;-72
2022/09/20 06:29:06;;;;;;;6.50;2.83;;;13.20;99.90;;;;;;4948290;28;20114;-76
2022/09/20 06:31:31;;;;;;;9.98;2.70;;;13.30;99.90;;;;;;4948544;29;20409;-74
2022/09/20 06:34:09;;;;;;;8.13;2.65;;;13.30;99.90;;;;;;4952161;28;20024;-74
2022/09/20 06:43:18;;;;;;;8.80;3.08;;;13.50;99.90;;;;;;4953430;29;20789;-70
2022/09/20 06:45:44;;;;;;;13.45;3.30;;;13.50;99.90;;;;;;4944967;28;20027;-72
2022/09/20 06:48:14;;;;;;;6.70;2.85;;;13.60;99.90;;;;;;4954417;29;20050;-75
2022/09/20 06:50:44;;;;;;;5.90;3.10;;;13.70;99.90;;;;;;4954970;29;20095;-75
2022/09/20 06:53:16;;;;;;;9.68;3.03;;;13.80;99.90;;;;;;4949126;29;20474;-71
2022/09/20 06:55:44;;;;;;;10.73;2.65;;;13.90;99.90;;;;;;4950133;29;20059;-73
2022/09/20 06:58:14;;;;;;;10.70;3.17;;;14.00;99.90;;;;;;4947475;28;20114;-74
2022/09/20 07:00:40;;;;;;;10.43;2.90;;;14.00;99.90;;;;;;4947393;29;20038;-74
2022/09/20 07:03:07;;;;;;;9.38;3.08;;;14.00;99.90;;;;;;4944403;29;20035;-74
2022/09/20 07:05:35;;;;;;;8.13;3.03;;;14.10;99.90;;;;;;4950971;28;20031;-73
2022/09/20 07:08:01;;;;;;;9.32;3.25;;;14.20;99.90;;;;;;4949072;29;20019;-74
2022/09/20 07:10:29;;;;;;;12.40;3.58;;;14.20;99.90;;;;;;4952511;28;20790;-71
2022/09/20 07:12:58;;;;;;;12.15;3.25;;;14.10;99.90;;;;;;4946193;28;20317;-76
2022/09/20 07:15:24;;;;;;;10.65;2.80;;;14.10;99.90;;;;;;4946000;29;20454;-72
2022/09/20 07:17:50;;;;;;;13.57;3.15;;;14.10;99.90;;;;;;4941958;28;20028;-74
2022/09/20 07:20:18;;;;;;;13.48;2.95;;;14.20;99.90;;;;;;4948188;29;20027;-74
2022/09/20 07:22:47;;;;;;;7.40;2.40;;;14.30;99.90;;;;;;4942851;29;20100;-73
2022/09/20 07:25:13;;;;;;;11.02;2.97;;;14.40;99.90;;;;;;4949615;28;20121;-73
2022/09/20 07:27:39;;;;;;;8.27;2.33;;;14.50;99.90;;;;;;4943766;29;20106;-72
2022/09/20 07:30:07;;;;;;;17.73;2.72;;;14.70;99.90;;;;;;4943933;29;20342;-74
2022/09/20 07:32:32;;;;;;;10.82;2.42;;;15.00;99.90;;;;;;4947265;29;20024;-73
2022/09/20 07:35:00;;;;;;;19.85;2.53;;;15.10;99.90;;;;;;4942735;29;20567;-76
2022/09/20 07:37:26;;;;;;;8.82;2.28;;;15.00;99.90;;;;;;4944005;29;20019;-70
2022/09/20 07:39:52;;;;;;;9.43;2.75;;;15.10;99.90;;;;;;4942123;29;20426;-73
2022/09/20 07:42:20;;;;;;;13.88;2.58;;;15.00;99.90;;;;;;4941921;28;20030;-74
2022/09/20 07:44:46;;;;;;;8.68;2.30;;;15.10;99.90;;;;;;4945914;29;20028;-74
2022/09/20 07:47:14;;;;;;;7.15;2.50;;;15.30;99.90;;;;;;4947017;29;20379;-73
2022/09/20 07:49:40;;;;;;;9.95;2.65;;;15.40;99.90;;;;;;4948007;28;20035;-72
2022/09/20 07:52:10;;;;;;;9.88;2.53;;;15.60;99.90;;;;;;4946356;28;20020;-76
2022/09/20 07:54:35;;;;;;;12.82;2.65;;;15.70;99.90;;;;;;4949280;29;20031;-74
2022/09/20 07:57:02;;;;;;;10.43;2.45;;;15.80;99.90;;;;;;4945514;29;20437;-74
2022/09/20 07:59:30;;;;;;;11.43;2.67;;;15.90;99.90;;;;;;4945275;29;20023;-74
2022/09/20 08:01:59;;;;;;;11.75;2.53;;;16.00;99.90;;;;;;4946648;28;20027;-75
2022/09/20 08:04:27;;;;;;;12.50;2.83;;;16.00;99.90;;;;;;4948849;28;20139;-74
2022/09/20 08:06:57;;;;;;;8.77;2.55;;;16.20;99.90;;;;;;4945486;28;20106;-69
2022/09/20 08:09:25;;;;;;;9.13;2.35;;;16.40;99.90;;;;;;4945540;29;20082;-73
2022/09/20 08:11:51;;;;;;;6.70;2.05;;;16.60;99.90;;;;;;4961310;28;20114;-75
2022/09/20 08:14:17;;;;;;;9.30;2.45;;;16.80;99.90;;;;;;4945919;28;20167;-74
2022/09/20 08:16:48;;;;;;;12.82;2.60;;;16.90;99.90;;;;;;4945737;28;20065;-73
2022/09/20 08:19:17;;;;;;;9.43;2.30;;;17.10;99.90;;;;;;4945339;28;20453;-72
2022/09/20 08:21:43;;;;;;;7.75;2.40;;;17.30;99.90;;;;;;4943768;28;20039;-75
2022/09/20 08:24:09;;;;;;;8.43;2.30;;;17.20;99.90;;;;;;4947126;29;20054;-75
2022/09/20 08:26:37;;;;;;;5.93;2.60;;;17.30;99.90;;;;;;4942474;29;20199;-73
2022/09/20 08:29:04;;;;;;;6.10;2.25;;;17.30;99.90;;;;;;4944655;28;20082;-74
2022/09/20 08:31:35;;;;;;;9.05;2.60;;;16.90;99.90;;;;;;4942474;28;20047;-75
2022/09/20 08:34:03;;;;;;;14.45;3.03;;;17.10;99.90;;;;;;4943130;29;20082;-72
2022/09/20 08:36:33;;;;;;;8.95;3.13;;;17.20;99.90;;;;;;4947724;29;20074;-74
2022/09/20 08:39:01;;;;;;;9.50;3.05;;;17.00;99.90;;;;;;4945083;28;20106;-73
2022/09/20 08:41:39;;;;;;;12.20;3.10;;;17.10;99.90;;;;;;4962448;28;20126;-74
2022/09/20 08:44:39;;;;;;;15.27;2.10;;;17.40;99.90;;;;;;4945658;29;20046;-74
2022/09/20 08:47:17;;;;;;;13.65;2.83;;;17.50;99.90;;;;;;4938516;29;20051;-74
2022/09/20 08:49:43;;;;;;;16.85;5.68;;;17.50;99.90;;;;;;4945310;29;20050;-72
2022/09/20 08:52:20;;;;;;;8.15;1.38;;;17.30;99.90;;;;;;4943926;29;20054;-74
2022/09/20 08:54:46;;;;;;;5.30;1.55;;;17.30;99.90;;;;;;4947651;29;20035;-71
2022/09/20 08:57:15;;;;;;;10.50;2.45;;;17.30;99.90;;;;;;4948402;29;20030;-74
2022/09/20 08:59:43;;;;;;;9.85;2.05;;;17.20;99.90;;;;;;4948474;28;20206;-75
2022/09/20 09:02:20;;;;;;;10.27;2.10;;;17.10;99.90;;;;;;4948130;28;20460;-77
2022/09/20 09:04:48;;;;;;;9.98;1.80;;;17.10;99.90;;;;;;4943936;29;20140;-74
2022/09/20 09:07:20;;;;;;;5.20;1.42;;;17.20;99.90;;;;;;4948071;29;20028;-73
2022/09/20 09:09:50;;;;;;;6.00;2.20;;;17.20;99.90;;;;;;4946526;28;20087;-72
2022/09/20 09:12:25;;;;;;;6.65;2.17;;;17.30;99.90;;;;;;4950072;28;20019;-73
2022/09/20 09:15:01;;;;;;;6.30;2.25;;;17.70;99.90;;;;;;4962900;28;20027;-74
2022/09/20 09:17:28;;;;;;;9.65;2.25;;;18.20;99.90;;;;;;4956349;29;20484;-70
2022/09/20 09:19:58;;;;;;;5.10;1.50;;;18.20;99.90;;;;;;4950317;29;20055;-75
2022/09/20 09:22:44;;;;;;;9.80;1.75;;;18.60;99.90;;;;;;4963850;28;20456;-74
2022/09/20 09:25:23;;;;;;;4.97;1.75;;;19.10;99.90;;;;;;4947626;28;20042;-74
2022/09/20 09:27:52;;;;;;;7.75;1.50;;;19.30;99.90;;;;;;4946258;29;20091;-76
2022/09/20 09:30:25;;;;;;;4.43;1.77;;;19.30;99.10;;;;;;4947780;29;20238;-75
2022/09/20 09:32:52;;;;;;;5.13;1.98;;;19.40;99.40;;;;;;4948530;29;20047;-74
2022/09/20 09:35:25;;;;;;;7.63;1.45;;;19.20;99.60;;;;;;4947509;29;20487;-75
2022/09/20 09:38:00;;;;;;;6.20;1.63;;;19.90;98.30;;;;;;4962200;28;20038;-74
2022/09/20 09:40:28;;;;;;;8.43;1.80;;;21.00;97.40;;;;;;4959884;28;20710;-75
2022/09/20 09:43:00;;;;;;;5.70;1.52;;;20.90;95.50;;;;;;4946067;28;20090;-74
2022/09/20 09:45:37;;;;;;;4.55;1.70;;;20.60;95.00;;;;;;4947892;29;20110;-75
2022/09/20 09:48:16;;;;;;;5.20;1.45;;;20.60;96.20;;;;;;4944648;29;20586;-74
2022/09/20 09:50:42;;;;;;;7.03;1.40;;;20.50;94.40;;;;;;4962061;28;20087;-76
2022/09/20 09:53:30;;;;;;;5.10;1.25;;;19.90;94.00;;;;;;4948826;28;20043;-74
2022/09/20 09:56:25;;;;;;;5.72;1.27;;;19.30;95.20;;;;;;4947509;29;20050;-72
2022/09/20 09:59:11;;;;;;;5.05;1.48;;;18.80;95.40;;;;;;4949538;29;20031;-74
2022/09/20 10:02:09;;;;;;;3.65;1.00;;;18.50;96.20;;;;;;4944122;29;20023;-72
2022/09/20 10:05:07;;;;;;;3.35;1.00;;;18.40;97.00;;;;;;4948290;28;20098;-76
2022/09/20 10:07:39;;;;;;;1.67;1.02;;;19.30;96.20;;;;;;4950312;29;20023;-76
2022/09/20 10:10:20;;;;;;;4.10;1.20;;;19.90;94.30;;;;;;4947422;28;20038;-74
2022/09/20 10:13:02;;;;;;;3.83;0.90;;;20.70;93.40;;;;;;4944405;29;20029;-74
2022/09/20 10:15:43;;;;;;;2.13;0.98;;;21.10;93.20;;;;;;4946527;29;20058;-76
2022/09/20 10:18:11;;;;;;;1.88;1.10;;;21.20;91.00;;;;;;4943834;29;20028;-76
2022/09/20 10:20:52;;;;;;;4.68;1.42;;;21.10;91.70;;;;;;4944847;29;20023;-74
2022/09/20 10:23:31;;;;;;;5.60;1.35;;;21.30;92.50;;;;;;4963493;28;20460;-77
2022/09/20 10:26:15;;;;;;;6.30;1.15;;;21.40;91.10;;;;;;4950383;29;20379;-73
2022/09/20 10:29:14;;;;;;;2.30;0.98;;;21.50;90.80;;;;;;4951990;29;20035;-73
2022/09/20 10:31:59;;;;;;;4.05;1.23;;;21.70;90.20;;;;;;4945042;29;20035;-77
2022/09/20 10:34:46;;;;;;;5.15;1.33;;;22.00;91.50;;;;;;4954885;29;20031;-73
2022/09/20 10:37:35;;;;;;;3.35;1.20;;;22.00;88.80;;;;;;4945566;28;20046;-74
2022/09/20 10:43:13;;;;;;;2.83;1.38;;;21.50;88.20;;;;;;4945081;29;20097;-74
2022/09/20 10:43:23;;;;;;;2.30;0.93;;;21.00;88.80;;;;;;4946016;29;20035;-72
2022/09/20 10:45:57;;;;;;;2.05;1.02;;;20.70;90.30;;;;;;4946095;29;20035;-72
2022/09/20 10:48:31;;;;;;;2.80;0.93;;;20.40;91.00;;;;;;4943714;29;20054;-73
2022/09/20 10:51:05;;;;;;;2.28;1.02;;;20.60;90.20;;;;;;4945781;29;20035;-75
2022/09/20 10:53:47;;;;;;;3.58;1.17;;;20.50;90.20;;;;;;4948961;28;20093;-74
2022/09/20 10:56:24;;;;;;;2.58;1.20;;;20.70;88.90;;;;;;4949220;29;20530;-76
2022/09/20 10:59:13;;;;;;;3.95;1.00;;;20.90;89.40;;;;;;4947191;28;20026;-73
2022/09/20 11:01:51;;;;;;;3.05;1.30;;;20.80;90.00;;;;;;4946183;29;20605;-74
2022/09/20 11:04:34;;;;;;;3.20;1.30;;;20.70;90.50;;;;;;4945439;28;20036;-74
2022/09/20 11:07:22;;;;;;;4.25;1.30;;;20.90;90.70;;;;;;4942581;29;20023;-72
2022/09/20 11:09:58;;;;;;;4.15;1.00;;;21.10;89.50;;;;;;4944443;29;20062;-72
2022/09/20 11:12:42;;;;;;;2.92;1.20;;;21.00;90.00;;;;;;4946924;29;20456;-73
2022/09/20 11:15:15;;;;;;;3.80;1.30;;;20.70;90.90;;;;;;4943022;28;20029;-73
2022/09/20 11:18:08;;;;;;;5.68;1.20;;;21.30;90.90;;;;;;4943871;29;20103;-74
2022/09/20 11:20:44;;;;;;;;;;;21.50;86.70;;;;;;4917688;29;20036;-69
2022/09/20 11:23:15;;;;;;;3.67;1.13;;;21.40;85.30;;;;;;4955801;28;19993;-75
2022/09/20 11:25:50;;;;;;;4.82;1.23;;;21.30;85.10;;;;;;4959358;28;20047;-76
2022/09/20 11:28:19;;;;;;;3.10;1.08;;;21.00;84.80;;;;;;4946629;29;20042;-76
2022/09/20 11:31:41;;;;;;;4.60;1.35;;;21.30;86.70;;;;;;4948406;29;20132;-76
2022/09/20 11:34:20;;;;;;;4.93;1.98;;;21.10;86.60;;;;;;4892082;29;20071;-75
2022/09/20 11:36:53;;;;;;;4.05;1.20;;;20.80;88.90;;;;;;4943435;29;20110;-72
2022/09/20 11:39:32;;;;;;;2.75;1.13;;;20.70;86.00;;;;;;4942937;28;20031;-75
2022/09/20 11:42:03;;;;;;;2.92;1.25;;;20.60;84.20;;;;;;4948020;28;20035;-73
2022/09/20 11:44:29;;;;;;;2.42;1.00;;;20.50;86.40;;;;;;4943371;29;20329;-74
2022/09/20 11:47:12;;;;;;;2.67;1.25;;;20.80;85.90;;;;;;4959167;28;20103;-73
2022/09/20 11:49:49;;;;;;;3.35;1.10;;;20.80;81.70;;;;;;4960904;28;20047;-77
2022/09/20 11:52:20;;;;;;;6.47;1.08;;;20.70;84.50;;;;;;4959032;28;20461;-76
2022/09/20 11:54:55;;;;;;;5.78;1.38;;;20.40;84.00;;;;;;4944328;29;20062;-69
2022/09/20 11:57:22;;;;;;;4.07;1.10;;;20.70;84.90;;;;;;4946083;29;20337;-76
2022/09/20 12:00:01;;;;;;;2.45;1.00;;;21.40;82.00;;;;;;4963442;28;20031;-75
2022/09/20 12:02:37;;;;;;;4.88;1.20;;;22.10;77.20;;;;;;4942221;29;20023;-73
2022/09/20 12:05:05;;;;;;;5.05;0.82;;;22.40;75.70;;;;;;4943854;29;20027;-73
2022/09/20 12:07:41;;;;;;;5.78;1.23;;;22.70;75.50;;;;;;4950666;28;20122;-75
2022/09/20 12:10:24;;;;;;;8.23;1.70;;;23.10;75.00;;;;;;4947218;29;20170;-74
2022/09/20 12:13:00;;;;;;;;;;;22.60;75.40;;;;;;4944079;29;20027;-74
2022/09/20 12:15:38;;;;;;;7.30;1.10;;;23.00;73.70;;;;;;4945046;29;19984;-69
2022/09/20 12:18:32;;;;;;;2.78;0.95;;;23.40;69.60;;;;;;4943159;29;20023;-73
2022/09/20 12:21:03;;;;;;;3.92;1.40;;;23.10;70.10;;;;;;4943364;29;20044;-77
2022/09/20 12:23:39;;;;;;;4.30;1.45;;;22.70;70.40;;;;;;4943991;29;20031;-72
2022/09/20 12:26:14;;;;;;;5.25;1.45;;;22.20;71.90;;;;;;4945106;29;20032;-74
2022/09/20 12:28:44;;;;;;;3.88;1.20;;;22.20;74.80;;;;;;4945191;29;20023;-74
2022/09/20 12:34:12;;;;;;;3.30;1.08;;;22.40;69.40;;;;;;4947140;29;20126;-73
2022/09/20 12:36:42;;;;;;;3.95;1.30;;;22.70;69.00;;;;;;4946545;29;20491;-72
2022/09/20 12:39:11;;;;;;;5.40;1.20;;;22.80;68.90;;;;;;4949197;28;20035;-74
2022/09/20 12:41:56;;;;;;;1.27;0.88;;;22.50;71.00;;;;;;4947245;28;20043;-74
2022/09/20 12:44:27;;;;;;;3.72;1.15;;;22.10;68.50;;;;;;4951988;29;20105;-74
2022/09/20 12:47:07;;;;;;;3.25;1.00;;;21.50;71.10;;;;;;4962874;28;20035;-73
2022/09/20 12:52:52;;;;;;;7.68;1.17;;;20.70;72.20;;;;;;4946596;29;20594;-74
2022/09/20 12:55:48;;;;;;;5.30;1.27;;;21.10;74.80;;;;;;4946151;29;20031;-73
2022/09/20 12:58:14;;;;;;;3.60;1.15;;;21.20;75.30;;;;;;4946119;28;20035;-73
2022/09/20 13:00:45;;;;;;;3.65;1.00;;;20.90;75.50;;;;;;4948143;28;20028;-68
2022/09/20 13:03:22;;;;;;;3.22;0.90;;;20.60;77.00;;;;;;4948684;29;20115;-75
2022/09/20 13:08:58;;;;;;;4.40;1.33;;;20.00;79.70;;;;;;4942335;28;20035;-72
2022/09/20 13:11:47;;;;;;;5.72;1.33;;;19.70;80.90;;;;;;4960104;28;20115;-75
2022/09/20 13:14:32;;;;;;;6.07;1.40;;;19.40;81.90;;;;;;4946367;29;20030;-73
2022/09/20 13:17:26;;;;;;;3.53;1.23;;;19.20;84.30;;;;;;4951039;29;20117;-75
2022/09/20 13:19:53;;;;;;;10.65;1.25;;;19.10;86.40;;;;;;4946212;29;20634;-75
2022/09/20 13:22:33;;;;;;;4.20;1.00;;;19.00;87.40;;;;;;4948265;29;20036;-75
2022/09/20 13:25:04;;;;;;;5.57;1.00;;;19.00;88.20;;;;;;4949144;28;20027;-75
2022/09/20 13:27:33;;;;;;;2.10;1.02;;;19.00;87.80;;;;;;4946338;28;20462;-75
2022/09/20 13:30:21;;;;;;;5.55;1.15;;;18.80;88.00;;;;;;4947334;28;20735;-73
2022/09/20 13:32:49;;;;;;;5.80;1.15;;;18.80;88.20;;;;;;4946636;28;20162;-74
2022/09/20 13:35:30;;;;;;;7.40;1.33;;;18.70;88.60;;;;;;4949732;29;20031;-76
2022/09/20 13:38:10;;;;;;;6.10;1.00;;;18.80;89.00;;;;;;4946819;28;20043;-73
2022/09/20 13:40:46;;;;;;;5.93;1.05;;;19.00;89.00;;;;;;4949676;29;20028;-72
2022/09/20 13:43:14;;;;;;;2.67;1.20;;;19.00;87.00;;;;;;4949657;29;20115;-74
2022/09/20 13:45:45;;;;;;;3.15;1.20;;;19.40;86.30;;;;;;4951499;29;20095;-73
2022/09/20 13:48:17;;;;;;;3.38;1.15;;;20.10;84.60;;;;;;4949927;29;20546;-76
2022/09/20 13:50:46;;;;;;;4.63;1.20;;;21.10;82.60;;;;;;4947455;29;20441;-74
2022/09/20 13:53:17;;;;;;;7.63;1.30;;;22.00;79.90;;;;;;4962481;28;20036;-72
2022/09/20 13:55:44;;;;;;;3.42;1.20;;;22.20;77.50;;;;;;4945003;29;20050;-72
2022/09/20 13:58:30;;;;;;;6.07;1.27;;;22.70;76.60;;;;;;4946936;28;20035;-75
2022/09/20 14:01:02;;;;;;;5.53;1.65;;;23.20;74.30;;;;;;4961290;28;20567;-74